sensor_id;sensor_type;location;lat;lon;timestamp;pressure;altitude;pressure_sealevel;temperature;humidity
46534;BME280;32260;52.008;4.752;2022-11-09T00:01:37;100450.66;;;15.36;64.67
46534;BME280;32260;52.008;4.752;2022-11-09T00:04:04;100449.56;;;15.40;64.68
46534;BME280;32260;52.008;4.752;2022-11-09T00:06:32;100461.06;;;15.42;64.49
46534;BME280;32260;52.008;4.752;2022-11-09T00:08:59;100460.19;;;15.42;64.40
46534;BME280;32260;52.008;4.752;2022-11-09T00:11:26;100457.88;;;15.34;64.48
46534;BME280;32260;52.008;4.752;2022-11-09T00:13:52;100460.13;;;15.43;63.97
46534;BME280;32260;52.008;4.752;2022-11-09T00:16:20;100474.56;;;15.39;64.11
46534;BME280;32260;52.008;4.752;2022-11-09T00:18:47;100458.53;;;15.39;64.03
46534;BME280;32260;52.008;4.752;2022-11-09T00:21:16;100458.59;;;15.37;63.88
46534;BME280;32260;52.008;4.752;2022-11-09T00:23:42;100455.41;;;15.29;63.70
46534;BME280;32260;52.008;4.752;2022-11-09T00:26:10;100465.66;;;15.19;64.14
46534;BME280;32260;52.008;4.752;2022-11-09T00:28:37;100454.00;;;15.01;64.26
46534;BME280;32260;52.008;4.752;2022-11-09T00:31:05;100460.47;;;14.96;64.41
46534;BME280;32260;52.008;4.752;2022-11-09T00:33:32;100451.41;;;15.00;64.18
46534;BME280;32260;52.008;4.752;2022-11-09T00:35:59;100457.81;;;14.96;64.16
46534;BME280;32260;52.008;4.752;2022-11-09T00:38:27;100462.50;;;14.91;64.37
46534;BME280;32260;52.008;4.752;2022-11-09T00:40:53;100451.94;;;14.87;64.54
46534;BME280;32260;52.008;4.752;2022-11-09T00:43:24;100455.50;;;14.88;64.30
46534;BME280;32260;52.008;4.752;2022-11-09T00:45:50;100455.63;;;14.85;64.35
46534;BME280;32260;52.008;4.752;2022-11-09T00:48:16;100458.19;;;14.86;64.49
46534;BME280;32260;52.008;4.752;2022-11-09T00:50:50;100462.59;;;14.87;64.13
46534;BME280;32260;52.008;4.752;2022-11-09T00:53:16;100463.81;;;14.80;64.22
46534;BME280;32260;52.008;4.752;2022-11-09T00:55:51;100470.38;;;14.73;64.50
46534;BME280;32260;52.008;4.752;2022-11-09T00:58:17;100464.88;;;14.76;64.39
46534;BME280;32260;52.008;4.752;2022-11-09T01:00:43;100465.06;;;14.71;64.42
46534;BME280;32260;52.008;4.752;2022-11-09T01:03:09;100458.97;;;14.69;64.33
46534;BME280;32260;52.008;4.752;2022-11-09T01:05:37;100459.03;;;14.68;64.48
46534;BME280;32260;52.008;4.752;2022-11-09T01:08:05;100460.03;;;14.64;64.47
46534;BME280;32260;52.008;4.752;2022-11-09T01:10:31;100462.06;;;14.59;64.46
46534;BME280;32260;52.008;4.752;2022-11-09T01:12:58;100459.53;;;14.55;64.56
46534;BME280;32260;52.008;4.752;2022-11-09T01:15:24;100464.59;;;14.62;64.22
46534;BME280;32260;52.008;4.752;2022-11-09T01:17:50;100468.38;;;14.56;64.37
46534;BME280;32260;52.008;4.752;2022-11-09T01:20:17;100471.78;;;14.60;64.40
46534;BME280;32260;52.008;4.752;2022-11-09T01:22:43;100470.19;;;14.55;64.42
46534;BME280;32260;52.008;4.752;2022-11-09T01:25:09;100466.78;;;14.52;64.42
46534;BME280;32260;52.008;4.752;2022-11-09T01:27:36;100465.53;;;14.61;64.36
46534;BME280;32260;52.008;4.752;2022-11-09T01:30:02;100470.84;;;14.61;64.28
46534;BME280;32260;52.008;4.752;2022-11-09T01:32:31;100468.13;;;14.62;64.42
46534;BME280;32260;52.008;4.752;2022-11-09T01:34:57;100473.63;;;14.57;64.50
46534;BME280;32260;52.008;4.752;2022-11-09T01:37:23;100473.34;;;14.65;64.53
46534;BME280;32260;52.008;4.752;2022-11-09T01:39:49;100475.81;;;14.70;64.51
46534;BME280;32260;52.008;4.752;2022-11-09T01:42:23;100478.56;;;14.68;64.53
46534;BME280;32260;52.008;4.752;2022-11-09T01:47:56;100485.28;;;14.77;64.70
46534;BME280;32260;52.008;4.752;2022-11-09T01:50:33;100479.41;;;14.69;64.59
46534;BME280;32260;52.008;4.752;2022-11-09T01:53:02;100463.28;;;14.72;64.55
46534;BME280;32260;52.008;4.752;2022-11-09T01:55:30;100462.47;;;14.70;64.67
46534;BME280;32260;52.008;4.752;2022-11-09T01:58:02;100466.06;;;14.69;64.67
46534;BME280;32260;52.008;4.752;2022-11-09T02:00:32;100466.16;;;14.67;64.56
46534;BME280;32260;52.008;4.752;2022-11-09T02:03:03;100473.22;;;14.68;64.69
46534;BME280;32260;52.008;4.752;2022-11-09T02:05:32;100474.16;;;14.67;64.65
46534;BME280;32260;52.008;4.752;2022-11-09T02:08:01;100467.75;;;14.71;64.72
46534;BME280;32260;52.008;4.752;2022-11-09T02:10:52;100469.47;;;14.72;64.72
46534;BME280;32260;52.008;4.752;2022-11-09T02:13:22;100474.06;;;14.69;64.78
46534;BME280;32260;52.008;4.752;2022-11-09T02:15:49;100473.16;;;14.70;64.88
46534;BME280;32260;52.008;4.752;2022-11-09T02:18:17;100465.06;;;14.71;64.77
46534;BME280;32260;52.008;4.752;2022-11-09T02:23:25;100481.63;;;14.57;65.28
46534;BME280;32260;52.008;4.752;2022-11-09T02:25:56;100487.56;;;14.66;65.32
46534;BME280;32260;52.008;4.752;2022-11-09T02:28:24;100474.44;;;14.60;65.52
46534;BME280;32260;52.008;4.752;2022-11-09T02:30:53;100482.56;;;14.56;65.48
46534;BME280;32260;52.008;4.752;2022-11-09T02:33:20;100494.97;;;14.57;65.54
46534;BME280;32260;52.008;4.752;2022-11-09T02:35:46;100505.69;;;14.56;65.57
46534;BME280;32260;52.008;4.752;2022-11-09T02:38:13;100509.44;;;14.52;66.17
46534;BME280;32260;52.008;4.752;2022-11-09T02:40:43;100494.31;;;14.52;66.14
46534;BME280;32260;52.008;4.752;2022-11-09T02:43:11;100501.47;;;14.50;66.00
46534;BME280;32260;52.008;4.752;2022-11-09T02:45:39;100493.63;;;14.47;66.40
46534;BME280;32260;52.008;4.752;2022-11-09T02:48:05;100489.63;;;14.37;66.85
46534;BME280;32260;52.008;4.752;2022-11-09T02:50:32;100482.56;;;14.36;66.89
46534;BME280;32260;52.008;4.752;2022-11-09T02:52:58;100488.00;;;14.33;67.00
46534;BME280;32260;52.008;4.752;2022-11-09T02:55:24;100484.41;;;14.34;66.84
46534;BME280;32260;52.008;4.752;2022-11-09T02:57:50;100485.53;;;14.28;67.09
46534;BME280;32260;52.008;4.752;2022-11-09T03:00:16;100489.19;;;14.26;67.27
46534;BME280;32260;52.008;4.752;2022-11-09T03:02:42;100481.25;;;14.24;67.17
46534;BME280;32260;52.008;4.752;2022-11-09T03:05:09;100489.50;;;14.18;67.42
46534;BME280;32260;52.008;4.752;2022-11-09T03:07:35;100484.91;;;14.21;67.37
46534;BME280;32260;52.008;4.752;2022-11-09T03:10:01;100482.69;;;14.11;67.69
46534;BME280;32260;52.008;4.752;2022-11-09T03:12:27;100487.16;;;14.10;67.74
46534;BME280;32260;52.008;4.752;2022-11-09T03:14:55;100486.53;;;14.03;67.83
46534;BME280;32260;52.008;4.752;2022-11-09T03:17:22;100505.88;;;14.08;67.48
46534;BME280;32260;52.008;4.752;2022-11-09T03:19:48;100501.47;;;14.07;67.35
46534;BME280;32260;52.008;4.752;2022-11-09T03:22:14;100513.09;;;14.05;67.39
46534;BME280;32260;52.008;4.752;2022-11-09T03:24:40;100514.84;;;14.06;67.34
46534;BME280;32260;52.008;4.752;2022-11-09T03:27:06;100524.94;;;13.98;67.76
46534;BME280;32260;52.008;4.752;2022-11-09T03:29:33;100528.28;;;14.03;67.45
46534;BME280;32260;52.008;4.752;2022-11-09T03:31:59;100517.75;;;14.00;67.13
46534;BME280;32260;52.008;4.752;2022-11-09T03:34:25;100523.31;;;13.94;67.54
46534;BME280;32260;52.008;4.752;2022-11-09T03:36:51;100522.44;;;13.93;67.67
46534;BME280;32260;52.008;4.752;2022-11-09T03:39:18;100530.50;;;13.91;67.16
46534;BME280;32260;52.008;4.752;2022-11-09T03:41:44;100536.28;;;13.79;67.60
46534;BME280;32260;52.008;4.752;2022-11-09T03:44:10;100538.16;;;13.77;67.89
46534;BME280;32260;52.008;4.752;2022-11-09T03:46:36;100538.16;;;13.77;67.92
46534;BME280;32260;52.008;4.752;2022-11-09T03:49:02;100547.81;;;13.80;67.76
46534;BME280;32260;52.008;4.752;2022-11-09T03:51:28;100548.06;;;13.73;68.08
46534;BME280;32260;52.008;4.752;2022-11-09T03:53:54;100557.03;;;13.71;67.82
46534;BME280;32260;52.008;4.752;2022-11-09T03:56:20;100556.34;;;13.66;67.92
46534;BME280;32260;52.008;4.752;2022-11-09T03:58:47;100556.56;;;13.59;68.64
46534;BME280;32260;52.008;4.752;2022-11-09T04:01:13;100562.63;;;13.63;67.98
46534;BME280;32260;52.008;4.752;2022-11-09T04:03:39;100559.94;;;13.65;68.10
46534;BME280;32260;52.008;4.752;2022-11-09T04:06:05;100562.59;;;13.65;68.29
46534;BME280;32260;52.008;4.752;2022-11-09T04:08:31;100570.66;;;13.62;68.20
46534;BME280;32260;52.008;4.752;2022-11-09T04:10:57;100562.69;;;13.62;68.24
46534;BME280;32260;52.008;4.752;2022-11-09T04:13:23;100561.06;;;13.57;68.52
46534;BME280;32260;52.008;4.752;2022-11-09T04:15:50;100569.16;;;13.54;68.61
46534;BME280;32260;52.008;4.752;2022-11-09T04:18:16;100566.56;;;13.53;68.26
46534;BME280;32260;52.008;4.752;2022-11-09T04:20:42;100561.66;;;13.66;68.05
46534;BME280;32260;52.008;4.752;2022-11-09T04:23:11;100562.38;;;13.69;67.80
46534;BME280;32260;52.008;4.752;2022-11-09T04:25:38;100564.06;;;13.72;67.61
46534;BME280;32260;52.008;4.752;2022-11-09T04:28:06;100569.28;;;13.75;67.74
46534;BME280;32260;52.008;4.752;2022-11-09T04:30:35;100568.38;;;13.76;67.72
46534;BME280;32260;52.008;4.752;2022-11-09T04:33:02;100576.28;;;13.78;67.71
46534;BME280;32260;52.008;4.752;2022-11-09T04:35:29;100578.91;;;13.79;67.67
46534;BME280;32260;52.008;4.752;2022-11-09T04:37:59;100573.47;;;13.82;66.87
46534;BME280;32260;52.008;4.752;2022-11-09T04:40:28;100567.25;;;13.82;67.24
46534;BME280;32260;52.008;4.752;2022-11-09T04:42:54;100558.34;;;13.83;66.64
46534;BME280;32260;52.008;4.752;2022-11-09T04:45:21;100571.81;;;13.78;66.74
46534;BME280;32260;52.008;4.752;2022-11-09T04:47:47;100579.03;;;13.76;67.09
46534;BME280;32260;52.008;4.752;2022-11-09T04:50:14;100570.44;;;13.68;67.32
46534;BME280;32260;52.008;4.752;2022-11-09T04:52:40;100581.97;;;13.68;67.41
46534;BME280;32260;52.008;4.752;2022-11-09T04:55:07;100580.19;;;13.69;67.17
46534;BME280;32260;52.008;4.752;2022-11-09T04:57:33;100588.91;;;13.72;67.08
46534;BME280;32260;52.008;4.752;2022-11-09T04:59:59;100589.59;;;13.78;66.94
46534;BME280;32260;52.008;4.752;2022-11-09T05:02:25;100585.88;;;13.83;66.82
46534;BME280;32260;52.008;4.752;2022-11-09T05:04:51;100584.91;;;13.84;67.31
46534;BME280;32260;52.008;4.752;2022-11-09T05:07:17;100584.00;;;13.85;67.28
46534;BME280;32260;52.008;4.752;2022-11-09T05:09:43;100594.53;;;13.88;66.97
46534;BME280;32260;52.008;4.752;2022-11-09T05:12:10;100585.50;;;13.93;67.15
46534;BME280;32260;52.008;4.752;2022-11-09T05:14:37;100581.03;;;13.93;67.44
46534;BME280;32260;52.008;4.752;2022-11-09T05:17:03;100580.16;;;13.93;67.64
46534;BME280;32260;52.008;4.752;2022-11-09T05:19:29;100577.88;;;13.83;67.57
46534;BME280;32260;52.008;4.752;2022-11-09T05:21:55;100572.81;;;13.75;67.76
46534;BME280;32260;52.008;4.752;2022-11-09T05:24:21;100570.22;;;13.74;68.10
46534;BME280;32260;52.008;4.752;2022-11-09T05:26:47;100573.16;;;13.66;68.34
46534;BME280;32260;52.008;4.752;2022-11-09T05:29:13;100579.09;;;13.49;69.05
46534;BME280;32260;52.008;4.752;2022-11-09T05:31:39;100572.03;;;13.48;68.60
46534;BME280;32260;52.008;4.752;2022-11-09T05:34:09;100585.47;;;13.45;68.33
46534;BME280;32260;52.008;4.752;2022-11-09T05:36:36;100593.56;;;13.42;68.31
46534;BME280;32260;52.008;4.752;2022-11-09T05:39:03;100580.47;;;13.36;68.85
46534;BME280;32260;52.008;4.752;2022-11-09T05:41:29;100576.06;;;13.35;68.71
46534;BME280;32260;52.008;4.752;2022-11-09T05:43:55;100582.81;;;13.18;69.37
46534;BME280;32260;52.008;4.752;2022-11-09T05:46:21;100586.25;;;13.22;69.39
46534;BME280;32260;52.008;4.752;2022-11-09T05:48:47;100582.78;;;13.20;69.58
46534;BME280;32260;52.008;4.752;2022-11-09T05:51:14;100581.00;;;13.20;69.52
46534;BME280;32260;52.008;4.752;2022-11-09T05:53:40;100580.16;;;13.18;69.13
46534;BME280;32260;52.008;4.752;2022-11-09T05:56:09;100587.44;;;13.13;69.87
46534;BME280;32260;52.008;4.752;2022-11-09T05:58:35;100592.88;;;13.10;69.74
46534;BME280;32260;52.008;4.752;2022-11-09T06:01:06;100593.78;;;13.09;69.83
46534;BME280;32260;52.008;4.752;2022-11-09T06:03:32;100602.69;;;13.08;70.10
46534;BME280;32260;52.008;4.752;2022-11-09T06:06:07;100596.53;;;13.06;70.39
46534;BME280;32260;52.008;4.752;2022-11-09T06:08:33;100600.91;;;13.08;70.06
46534;BME280;32260;52.008;4.752;2022-11-09T06:11:01;100597.66;;;13.00;70.58
46534;BME280;32260;52.008;4.752;2022-11-09T06:13:28;100597.44;;;13.06;70.24
46534;BME280;32260;52.008;4.752;2022-11-09T06:15:56;100605.28;;;13.09;70.52
46534;BME280;32260;52.008;4.752;2022-11-09T06:18:23;100603.59;;;13.07;70.37
46534;BME280;32260;52.008;4.752;2022-11-09T06:20:51;100604.31;;;13.12;70.58
46534;BME280;32260;52.008;4.752;2022-11-09T06:23:18;100606.97;;;13.12;70.23
46534;BME280;32260;52.008;4.752;2022-11-09T06:25:47;100593.59;;;13.15;70.15
46534;BME280;32260;52.008;4.752;2022-11-09T06:28:15;100605.22;;;13.13;70.55
46534;BME280;32260;52.008;4.752;2022-11-09T06:30:41;100604.50;;;13.07;70.28
46534;BME280;32260;52.008;4.752;2022-11-09T06:33:07;100598.28;;;13.07;70.33
46534;BME280;32260;52.008;4.752;2022-11-09T06:35:34;100596.47;;;13.09;69.93
46534;BME280;32260;52.008;4.752;2022-11-09T06:38:00;100608.84;;;13.10;70.39
46534;BME280;32260;52.008;4.752;2022-11-09T06:40:27;100609.63;;;13.12;70.23
46534;BME280;32260;52.008;4.752;2022-11-09T06:42:57;100607.72;;;13.17;70.71
46534;BME280;32260;52.008;4.752;2022-11-09T06:45:23;100607.59;;;13.20;70.47
46534;BME280;32260;52.008;4.752;2022-11-09T06:47:50;100614.75;;;13.18;70.91
46534;BME280;32260;52.008;4.752;2022-11-09T06:50:16;100614.75;;;13.18;70.63
46534;BME280;32260;52.008;4.752;2022-11-09T06:52:42;100609.44;;;13.18;70.51
46534;BME280;32260;52.008;4.752;2022-11-09T06:55:08;100609.41;;;13.20;70.67
46534;BME280;32260;52.008;4.752;2022-11-09T06:57:34;100611.28;;;13.16;71.16
46534;BME280;32260;52.008;4.752;2022-11-09T07:00:01;100615.47;;;13.23;70.67
46534;BME280;32260;52.008;4.752;2022-11-09T07:02:27;100616.50;;;13.19;70.84
46534;BME280;32260;52.008;4.752;2022-11-09T07:04:53;100617.38;;;13.20;70.40
46534;BME280;32260;52.008;4.752;2022-11-09T07:07:19;100620.03;;;13.20;70.61
46534;BME280;32260;52.008;4.752;2022-11-09T07:09:46;100615.69;;;13.17;70.65
46534;BME280;32260;52.008;4.752;2022-11-09T07:12:12;100621.94;;;13.16;70.72
46534;BME280;32260;52.008;4.752;2022-11-09T07:14:38;100615.63;;;13.19;70.89
46534;BME280;32260;52.008;4.752;2022-11-09T07:17:04;100628.22;;;13.14;70.97
46534;BME280;32260;52.008;4.752;2022-11-09T07:19:30;100623.75;;;13.14;71.17
46534;BME280;32260;52.008;4.752;2022-11-09T07:21:57;100614.03;;;13.13;71.20
46534;BME280;32260;52.008;4.752;2022-11-09T07:24:23;100612.28;;;13.12;71.25
46534;BME280;32260;52.008;4.752;2022-11-09T07:26:49;100625.38;;;13.18;70.93
46534;BME280;32260;52.008;4.752;2022-11-09T07:29:15;100614.75;;;13.18;70.79
46534;BME280;32260;52.008;4.752;2022-11-09T07:31:41;100625.31;;;13.21;70.68
46534;BME280;32260;52.008;4.752;2022-11-09T07:34:08;100617.38;;;13.20;70.99
46534;BME280;32260;52.008;4.752;2022-11-09T07:36:34;100617.31;;;13.21;71.11
46534;BME280;32260;52.008;4.752;2022-11-09T07:39:02;100620.81;;;13.23;70.96
46534;BME280;32260;52.008;4.752;2022-11-09T07:41:28;100626.91;;;13.25;70.92
46534;BME280;32260;52.008;4.752;2022-11-09T07:43:54;100629.53;;;13.27;70.69
46534;BME280;32260;52.008;4.752;2022-11-09T07:46:20;100635.72;;;13.27;70.70
46534;BME280;32260;52.008;4.752;2022-11-09T07:48:46;100637.47;;;13.29;70.87
46534;BME280;32260;52.008;4.752;2022-11-09T07:51:12;100644.41;;;13.33;70.57
46534;BME280;32260;52.008;4.752;2022-11-09T07:53:38;100650.31;;;13.42;70.23
46534;BME280;32260;52.008;4.752;2022-11-09T07:56:04;100663.56;;;13.44;70.33
46534;BME280;32260;52.008;4.752;2022-11-09T07:58:31;100660.09;;;13.42;70.38
46534;BME280;32260;52.008;4.752;2022-11-09T08:00:59;100667.00;;;13.48;70.56
46534;BME280;32260;52.008;4.752;2022-11-09T08:03:25;100660.00;;;13.45;70.17
46534;BME280;32260;52.008;4.752;2022-11-09T08:05:51;100663.28;;;13.53;69.73
46534;BME280;32260;52.008;4.752;2022-11-09T08:08:17;100666.72;;;13.55;70.13
46534;BME280;32260;52.008;4.752;2022-11-09T08:10:44;100671.06;;;13.58;70.05
46534;BME280;32260;52.008;4.752;2022-11-09T08:13:17;100673.72;;;13.58;69.54
46534;BME280;32260;52.008;4.752;2022-11-09T08:15:44;100667.41;;;13.62;69.94
46534;BME280;32260;52.008;4.752;2022-11-09T08:18:13;100676.38;;;13.59;69.70
46534;BME280;32260;52.008;4.752;2022-11-09T08:20:39;100680.44;;;13.70;69.93
46534;BME280;32260;52.008;4.752;2022-11-09T08:23:05;100674.88;;;13.76;69.88
46534;BME280;32260;52.008;4.752;2022-11-09T08:25:33;100682.53;;;13.85;69.49
46534;BME280;32260;52.008;4.752;2022-11-09T08:28:00;100679.53;;;13.95;69.17
46534;BME280;32260;52.008;4.752;2022-11-09T08:30:26;100693.34;;;14.06;69.08
46534;BME280;32260;52.008;4.752;2022-11-09T08:32:53;100683.25;;;14.14;68.65
46534;BME280;32260;52.008;4.752;2022-11-09T08:35:21;100696.47;;;14.17;68.41
46534;BME280;32260;52.008;4.752;2022-11-09T08:37:49;100687.09;;;14.31;68.11
46534;BME280;32260;52.008;4.752;2022-11-09T08:40:18;100691.28;;;14.36;67.88
46534;BME280;32260;52.008;4.752;2022-11-09T08:42:45;100692.19;;;14.37;67.81
46534;BME280;32260;52.008;4.752;2022-11-09T08:45:11;100706.06;;;14.45;67.37
46534;BME280;32260;52.008;4.752;2022-11-09T08:47:37;100697.97;;;14.48;67.23
46534;BME280;32260;52.008;4.752;2022-11-09T08:50:05;100694.66;;;14.42;67.26
46534;BME280;32260;52.008;4.752;2022-11-09T08:52:32;100702.38;;;14.49;67.07
46534;BME280;32260;52.008;4.752;2022-11-09T08:54:59;100702.41;;;14.48;66.52
46534;BME280;32260;52.008;4.752;2022-11-09T08:57:25;100707.00;;;14.44;66.46
46534;BME280;32260;52.008;4.752;2022-11-09T08:59:51;100708.47;;;14.53;66.42
46534;BME280;32260;52.008;4.752;2022-11-09T09:02:17;100700.50;;;14.51;66.38
46534;BME280;32260;52.008;4.752;2022-11-09T09:04:44;100707.56;;;14.52;66.55
46534;BME280;32260;52.008;4.752;2022-11-09T09:07:10;100709.31;;;14.53;66.54
46534;BME280;32260;52.008;4.752;2022-11-09T09:09:37;100707.72;;;14.49;66.30
46534;BME280;32260;52.008;4.752;2022-11-09T09:12:04;100710.06;;;14.57;66.10
46534;BME280;32260;52.008;4.752;2022-11-09T09:14:31;100705.50;;;14.61;66.09
46534;BME280;32260;52.008;4.752;2022-11-09T09:16:57;100698.50;;;14.56;66.07
46534;BME280;32260;52.008;4.752;2022-11-09T09:19:23;100709.94;;;14.60;66.14
46534;BME280;32260;52.008;4.752;2022-11-09T09:21:49;100692.88;;;14.66;66.06
46534;BME280;32260;52.008;4.752;2022-11-09T09:24:15;100699.94;;;14.67;65.68
46534;BME280;32260;52.008;4.752;2022-11-09T09:26:43;100706.66;;;14.77;65.85
46534;BME280;32260;52.008;4.752;2022-11-09T09:29:09;100709.06;;;14.83;65.54
46534;BME280;32260;52.008;4.752;2022-11-09T09:31:36;100704.34;;;14.90;65.29
46534;BME280;32260;52.008;4.752;2022-11-09T09:34:02;100710.34;;;14.95;65.26
46534;BME280;32260;52.008;4.752;2022-11-09T09:36:29;100705.91;;;14.96;64.80
46534;BME280;32260;52.008;4.752;2022-11-09T09:38:55;100707.41;;;15.03;65.10
46534;BME280;32260;52.008;4.752;2022-11-09T09:41:39;100703.09;;;14.99;64.86
46534;BME280;32260;52.008;4.752;2022-11-09T09:45:27;100721.59;;;15.26;64.28
46534;BME280;32260;52.008;4.752;2022-11-09T09:49:59;100717.31;;;15.22;64.03
46534;BME280;32260;52.008;4.752;2022-11-09T09:52:50;100718.78;;;15.29;63.61
46534;BME280;32260;52.008;4.752;2022-11-09T09:55:27;100729.59;;;15.26;64.17
46534;BME280;32260;52.008;4.752;2022-11-09T09:58:03;100732.38;;;15.23;63.81
46534;BME280;32260;52.008;4.752;2022-11-09T10:00:31;100736.63;;;15.28;63.41
46534;BME280;32260;52.008;4.752;2022-11-09T10:02:59;100743.88;;;15.25;63.23
46534;BME280;32260;52.008;4.752;2022-11-09T10:05:36;100747.09;;;15.33;63.00
46534;BME280;32260;52.008;4.752;2022-11-09T10:08:11;100739.50;;;15.44;63.07
46534;BME280;32260;52.008;4.752;2022-11-09T10:13:40;100757.53;;;15.39;62.05
46534;BME280;32260;52.008;4.752;2022-11-09T10:21:47;100760.88;;;15.44;62.38
46534;BME280;32260;52.008;4.752;2022-11-09T10:26:56;100760.75;;;15.25;61.82
46534;BME280;32260;52.008;4.752;2022-11-09T10:29:44;100758.03;;;15.27;61.80
46534;BME280;32260;52.008;4.752;2022-11-09T10:32:14;100757.09;;;15.28;61.70
46534;BME280;32260;52.008;4.752;2022-11-09T10:34:51;100752.69;;;15.27;62.68
46534;BME280;32260;52.008;4.752;2022-11-09T10:40:09;100753.31;;;15.33;63.50
46534;BME280;32260;52.008;4.752;2022-11-09T10:42:38;100757.28;;;15.23;63.61
46534;BME280;32260;52.008;4.752;2022-11-09T10:45:35;100751.31;;;15.16;64.18
46534;BME280;32260;52.008;4.752;2022-11-09T10:48:03;100746.47;;;15.04;64.80
46534;BME280;32260;52.008;4.752;2022-11-09T10:50:49;100748.69;;;14.93;64.45
46534;BME280;32260;52.008;4.752;2022-11-09T10:53:24;100755.91;;;14.91;64.50
46534;BME280;32260;52.008;4.752;2022-11-09T10:56:12;100762.63;;;15.01;64.11
46534;BME280;32260;52.008;4.752;2022-11-09T11:01:36;100748.22;;;15.05;64.14
46534;BME280;32260;52.008;4.752;2022-11-09T11:04:19;100753.13;;;15.16;64.05
46534;BME280;32260;52.008;4.752;2022-11-09T11:06:46;100761.94;;;15.18;63.52
46534;BME280;32260;52.008;4.752;2022-11-09T11:11:48;100752.94;;;15.20;62.65
46534;BME280;32260;52.008;4.752;2022-11-09T11:14:33;100753.56;;;15.05;62.99
46534;BME280;32260;52.008;4.752;2022-11-09T11:16:59;100743.25;;;14.96;62.87
46534;BME280;32260;52.008;4.752;2022-11-09T11:24:54;100764.47;;;14.51;65.64
46534;BME280;32260;52.008;4.752;2022-11-09T11:27:34;100749.88;;;14.38;65.77
46534;BME280;32260;52.008;4.752;2022-11-09T11:32:47;100773.81;;;14.14;65.27
46534;BME280;32260;52.008;4.752;2022-11-09T11:35:17;100767.72;;;14.12;66.37
46534;BME280;32260;52.008;4.752;2022-11-09T11:40:43;100783.91;;;14.06;65.51
46534;BME280;32260;52.008;4.752;2022-11-09T11:43:35;100779.69;;;14.24;66.51
46534;BME280;32260;52.008;4.752;2022-11-09T11:46:24;100774.69;;;14.40;64.86
46534;BME280;32260;52.008;4.752;2022-11-09T11:49:08;100786.03;;;14.45;63.87
46534;BME280;32260;52.008;4.752;2022-11-09T11:54:31;100776.66;;;14.59;64.20
46534;BME280;32260;52.008;4.752;2022-11-09T12:09:41;100787.81;;;15.16;64.50
46534;BME280;32260;52.008;4.752;2022-11-09T12:11:39;100777.66;;;15.26;64.54
46534;BME280;32260;52.008;4.752;2022-11-09T12:17:24;100761.25;;;15.35;64.01
46534;BME280;32260;52.008;4.752;2022-11-09T12:20:18;100766.31;;;15.41;63.31
46534;BME280;32260;52.008;4.752;2022-11-09T12:23:41;100781.00;;;15.31;63.79
46534;BME280;32260;52.008;4.752;2022-11-09T12:26:07;100768.47;;;15.33;63.82
46534;BME280;32260;52.008;4.752;2022-11-09T12:29:04;100769.13;;;15.38;63.91
46534;BME280;32260;52.008;4.752;2022-11-09T12:32:49;100763.63;;;15.43;62.69
46534;BME280;32260;52.008;4.752;2022-11-09T12:34:48;100786.44;;;15.50;62.47
46534;BME280;32260;52.008;4.752;2022-11-09T12:37:29;100776.31;;;15.36;62.74
46534;BME280;32260;52.008;4.752;2022-11-09T12:40:05;100771.31;;;15.50;62.68
46534;BME280;32260;52.008;4.752;2022-11-09T12:42:43;100777.56;;;15.49;62.37
46534;BME280;32260;52.008;4.752;2022-11-09T12:45:23;100774.81;;;15.51;61.64
46534;BME280;32260;52.008;4.752;2022-11-09T12:47:54;100778.91;;;15.60;61.88
46534;BME280;32260;52.008;4.752;2022-11-09T12:50:24;100789.19;;;15.48;60.85
46534;BME280;32260;52.008;4.752;2022-11-09T12:52:52;100784.50;;;15.53;60.63
46534;BME280;32260;52.008;4.752;2022-11-09T12:55:25;100788.41;;;15.67;60.48
46534;BME280;32260;52.008;4.752;2022-11-09T12:57:54;100793.16;;;15.60;60.07
46534;BME280;32260;52.008;4.752;2022-11-09T13:03:24;100807.84;;;15.71;60.37
46534;BME280;32260;52.008;4.752;2022-11-09T13:06:13;100806.84;;;15.73;59.47
46534;BME280;32260;52.008;4.752;2022-11-09T13:08:42;100812.78;;;15.80;59.96
46534;BME280;32260;52.008;4.752;2022-11-09T13:11:20;100812.88;;;15.78;59.98
46534;BME280;32260;52.008;4.752;2022-11-09T13:13:47;100812.88;;;15.78;60.03
46534;BME280;32260;52.008;4.752;2022-11-09T13:16:32;100810.38;;;15.74;60.10
46534;BME280;32260;52.008;4.752;2022-11-09T13:18:59;100823.19;;;15.65;59.49
46534;BME280;32260;52.008;4.752;2022-11-09T13:27:41;100824.72;;;15.71;60.04
46534;BME280;32260;52.008;4.752;2022-11-09T13:33:17;100822.69;;;15.78;59.62
46534;BME280;32260;52.008;4.752;2022-11-09T13:38:22;100835.31;;;15.74;59.77
46534;BME280;32260;52.008;4.752;2022-11-09T13:48:49;100855.75;;;15.75;59.40
46534;BME280;32260;52.008;4.752;2022-11-09T13:56:40;100845.13;;;15.51;59.00
46534;BME280;32260;52.008;4.752;2022-11-09T13:59:32;100859.28;;;15.53;59.19
46534;BME280;32260;52.008;4.752;2022-11-09T14:02:01;100863.84;;;15.51;59.36
46534;BME280;32260;52.008;4.752;2022-11-09T14:04:30;100866.03;;;15.40;59.51
46534;BME280;32260;52.008;4.752;2022-11-09T14:07:31;100867.34;;;15.52;58.95
46534;BME280;32260;52.008;4.752;2022-11-09T14:09:59;100860.59;;;15.43;59.61
46534;BME280;32260;52.008;4.752;2022-11-09T14:12:54;100885.47;;;15.44;59.94
46534;BME280;32260;52.008;4.752;2022-11-09T14:15:47;100879.09;;;15.48;60.10
46534;BME280;32260;52.008;4.752;2022-11-09T14:18:42;100890.13;;;15.39;60.43
46534;BME280;32260;52.008;4.752;2022-11-09T14:24:21;100901.69;;;15.39;60.66
46534;BME280;32260;52.008;4.752;2022-11-09T14:29:56;100897.53;;;15.32;61.33
46534;BME280;32260;52.008;4.752;2022-11-09T14:37:55;100909.38;;;15.25;61.98
46534;BME280;32260;52.008;4.752;2022-11-09T14:43:01;100922.31;;;15.12;62.21